Terminal Aerodrome Forecast
Issued by NWS Tallahassee, FL

Home | Current Version | Previous Version | Text Only | Print | Product List | Glossary On
Versions: 1 2 3 4 5 6 7 8 9 10 11 12 13 14 15 16 17 18 19
191
FTUS42 KTAE 291720
TAFTLH
TAF
KTLH 291720Z 2918/3018 25010KT P6SM SCT040 OVC200
     FM300000 26005KT P6SM BKN250
     FM300900 00000KT 4SM BR SCT005
     FM301500 31005KT P6SM SCT030 BKN250=

USA.gov is the U.S. government's official web portal to all federal, state and local government web resources and services.